createdAt,value
2022-11-06T00:00:30.145Z,15.05
2022-11-06T00:03:00.764Z,16.15
2022-11-06T00:05:48.215Z,13.88
2022-11-06T00:08:16.403Z,13.00
2022-11-06T00:10:43.814Z,13.27
2022-11-06T00:13:11.090Z,15.98
2022-11-06T00:15:38.350Z,14.25
2022-11-06T00:18:05.609Z,13.52
2022-11-06T00:20:33.841Z,15.77
2022-11-06T00:23:01.243Z,13.93
2022-11-06T00:25:28.506Z,17.05
2022-11-06T00:27:55.812Z,14.45
2022-11-06T00:30:23.070Z,18.08
2022-11-06T00:32:50.330Z,17.33
2022-11-06T00:35:17.711Z,13.98
2022-11-06T00:37:44.976Z,15.57
2022-11-06T00:40:13.835Z,14.00
2022-11-06T00:42:41.136Z,14.43
2022-11-06T00:45:10.572Z,14.63
2022-11-06T00:47:37.838Z,18.20
2022-11-06T00:50:06.899Z,15.23
2022-11-06T00:52:34.147Z,13.55
2022-11-06T00:55:01.814Z,10.20
2022-11-06T00:57:29.893Z,12.07
2022-11-06T00:59:57.202Z,10.23
2022-11-06T01:02:24.636Z,10.55
2022-11-06T01:04:52.047Z,13.40
2022-11-06T01:07:19.325Z,11.05
2022-11-06T01:09:46.650Z,14.43
2022-11-06T01:12:14.582Z,13.60
2022-11-06T01:14:43.624Z,15.38
2022-11-06T01:17:12.030Z,14.65
2022-11-06T01:19:40.292Z,16.83
2022-11-06T01:22:07.618Z,21.00
2022-11-06T01:24:35.209Z,18.02
2022-11-06T01:27:25.548Z,16.88
2022-11-06T01:29:50.090Z,18.40
2022-11-06T01:32:17.340Z,16.55
2022-11-06T01:34:44.703Z,16.23
2022-11-06T01:37:14.795Z,16.42
2022-11-06T01:39:42.779Z,18.17
2022-11-06T01:42:15.329Z,16.58
2022-11-06T01:44:42.337Z,17.35
2022-11-06T01:47:29.915Z,19.67
2022-11-06T01:50:04.980Z,18.85
2022-11-06T01:52:34.135Z,20.13
2022-11-06T01:55:30.439Z,20.55
2022-11-06T01:58:00.431Z,20.60
2022-11-06T02:00:27.943Z,15.35
2022-11-06T02:02:55.526Z,16.17
2022-11-06T02:05:24.283Z,16.42
2022-11-06T02:07:53.382Z,15.82
2022-11-06T02:10:20.726Z,15.57
2022-11-06T02:13:15.666Z,18.90
2022-11-06T02:16:23.588Z,17.23
2022-11-06T02:19:39.514Z,15.73
2022-11-06T02:22:38.584Z,16.15
2022-11-06T02:25:32.662Z,14.40
2022-11-06T02:28:24.796Z,16.85
2022-11-06T02:30:57.587Z,17.83
2022-11-06T02:33:38.170Z,15.52
2022-11-06T02:36:14.386Z,14.30
2022-11-06T02:38:50.690Z,13.45
2022-11-06T02:41:25.604Z,10.77
2022-11-06T02:43:57.492Z,8.15
2022-11-06T02:46:47.941Z,11.10
2022-11-06T02:49:34.132Z,8.93
2022-11-06T02:52:19.422Z,10.43
2022-11-06T02:55:03.650Z,10.95
2022-11-06T02:57:39.417Z,12.90
2022-11-06T03:00:15.791Z,9.63
2022-11-06T03:03:17.487Z,11.35
2022-11-06T03:06:08.476Z,8.50
2022-11-06T03:08:55.479Z,11.85
2022-11-06T03:11:30.937Z,10.32
2022-11-06T03:14:42.044Z,9.35
2022-11-06T03:17:44.718Z,8.75
2022-11-06T03:20:41.919Z,8.65
2022-11-06T03:23:45.102Z,11.07
2022-11-06T03:26:33.005Z,8.60
2022-11-06T03:29:21.367Z,8.20
2022-11-06T03:32:24.354Z,9.77
2022-11-06T03:35:26.403Z,8.63
2022-11-06T03:38:16.966Z,7.22
2022-11-06T03:40:57.950Z,8.60
2022-11-06T03:43:32.202Z,10.30
2022-11-06T03:46:07.698Z,9.02
2022-11-06T03:48:48.103Z,8.65
2022-11-06T03:51:37.796Z,12.18
2022-11-06T03:54:26.224Z,9.95
2022-11-06T03:57:18.775Z,9.35
2022-11-06T03:59:59.010Z,6.63
2022-11-06T04:02:31.817Z,9.45
2022-11-06T04:05:18.014Z,11.73
2022-11-06T04:08:11.142Z,10.05
2022-11-06T04:11:04.560Z,12.73
2022-11-06T04:13:53.496Z,9.75
2022-11-06T04:16:22.319Z,11.15
2022-11-06T04:18:49.577Z,10.88
2022-11-06T04:22:06.301Z,13.93
2022-11-06T04:25:18.775Z,15.68
2022-11-06T04:28:36.877Z,14.73
2022-11-06T04:31:42.156Z,18.88
2022-11-06T04:34:44.473Z,16.05
2022-11-06T04:37:44.319Z,15.18
2022-11-06T04:40:52.370Z,15.07
2022-11-06T04:43:52.550Z,12.77
2022-11-06T04:46:36.350Z,16.25
2022-11-06T04:49:06.072Z,13.80
2022-11-06T04:54:09.159Z,13.50
2022-11-06T04:56:41.492Z,12.13
2022-11-06T04:59:17.722Z,14.68
2022-11-06T05:01:47.294Z,15.05
2022-11-06T05:04:15.574Z,13.87
2022-11-06T05:06:44.339Z,13.63
2022-11-06T05:09:11.648Z,19.38
2022-11-06T05:11:38.980Z,14.43
2022-11-06T05:14:06.445Z,13.45
2022-11-06T05:16:33.714Z,17.95
2022-11-06T05:19:01.011Z,15.02
2022-11-06T05:21:46.580Z,15.82
2022-11-06T05:24:13.875Z,16.27
2022-11-06T05:26:41.197Z,15.60
2022-11-06T05:29:08.642Z,16.23
2022-11-06T05:31:35.888Z,16.98
2022-11-06T05:34:03.174Z,15.45
2022-11-06T05:36:31.399Z,18.00
2022-11-06T05:38:58.660Z,13.27
2022-11-06T05:41:26.028Z,13.90
2022-11-06T05:43:53.455Z,16.08
2022-11-06T05:46:46.795Z,16.83
2022-11-06T05:49:09.646Z,13.35
2022-11-06T05:51:39.740Z,14.68
2022-11-06T05:54:07.036Z,13.20
2022-11-06T05:56:35.936Z,14.35
2022-11-06T05:59:03.266Z,14.70
2022-11-06T06:01:30.630Z,11.77
2022-11-06T06:03:57.969Z,11.90
2022-11-06T06:06:25.527Z,12.48
2022-11-06T06:08:52.812Z,9.25
2022-11-06T06:11:20.172Z,11.50
2022-11-06T06:13:48.413Z,10.20
2022-11-06T06:16:16.079Z,13.35
2022-11-06T06:18:43.492Z,9.40
2022-11-06T06:21:10.895Z,8.65
2022-11-06T06:23:38.151Z,9.13
2022-11-06T06:26:06.644Z,9.35
2022-11-06T06:28:34.169Z,9.63
2022-11-06T06:31:07.263Z,8.80
2022-11-06T06:33:35.101Z,10.07
2022-11-06T06:36:07.110Z,10.13
2022-11-06T06:38:34.503Z,10.80
2022-11-06T06:41:08.527Z,10.18
2022-11-06T06:43:36.661Z,11.85
2022-11-06T06:46:07.434Z,12.70
2022-11-06T06:48:35.272Z,11.18
2022-11-06T06:51:04.042Z,13.77
2022-11-06T06:53:32.059Z,10.73
2022-11-06T06:56:01.751Z,10.93
2022-11-06T06:58:30.688Z,9.17
2022-11-06T07:01:05.126Z,12.93
2022-11-06T07:03:32.881Z,12.25
2022-11-06T07:06:00.276Z,11.30
2022-11-06T07:08:29.170Z,13.25
2022-11-06T07:11:07.167Z,12.32
2022-11-06T07:13:36.694Z,11.45
2022-11-06T07:16:11.514Z,13.00
2022-11-06T07:18:41.167Z,12.20
2022-11-06T07:21:12.514Z,10.87
2022-11-06T07:23:40.473Z,10.73
2022-11-06T07:26:07.751Z,11.73
2022-11-06T07:28:35.651Z,12.98
2022-11-06T07:31:06.895Z,13.25
2022-11-06T07:33:35.755Z,12.50
2022-11-06T07:36:14.442Z,12.63
2022-11-06T07:38:43.935Z,11.75
2022-11-06T07:41:15.760Z,11.52
2022-11-06T07:43:44.399Z,13.20
2022-11-06T07:46:13.659Z,10.10
2022-11-06T07:48:40.986Z,11.32
2022-11-06T07:51:11.490Z,12.05
2022-11-06T07:53:41.242Z,10.98
2022-11-06T07:56:09.014Z,11.05
2022-11-06T07:58:36.517Z,10.00
2022-11-06T08:01:04.516Z,10.13
2022-11-06T08:03:32.237Z,11.60
2022-11-06T08:06:02.852Z,9.38
2022-11-06T08:11:11.747Z,11.15
2022-11-06T08:13:40.819Z,10.55
2022-11-06T08:16:13.318Z,9.63
2022-11-06T08:18:41.946Z,11.32
2022-11-06T08:21:09.641Z,10.38
2022-11-06T08:23:36.916Z,11.15
2022-11-06T08:26:07.319Z,9.90
2022-11-06T08:28:35.448Z,10.82
2022-11-06T08:31:09.604Z,11.02
2022-11-06T08:33:39.256Z,13.05
2022-11-06T08:36:09.239Z,13.13
2022-11-06T08:38:37.057Z,10.80
2022-11-06T08:41:12.529Z,11.70
2022-11-06T08:43:40.363Z,11.88
2022-11-06T08:46:10.128Z,11.65
2022-11-06T08:48:37.923Z,10.15
2022-11-06T08:51:06.521Z,11.73
2022-11-06T08:53:34.256Z,11.30
2022-11-06T08:56:05.251Z,9.45
2022-11-06T08:58:32.678Z,10.43
2022-11-06T09:00:59.993Z,11.80
2022-11-06T09:03:28.097Z,11.30
2022-11-06T09:05:55.422Z,11.35
2022-11-06T09:08:24.149Z,11.40
2022-11-06T09:10:57.239Z,10.40
2022-11-06T09:13:26.280Z,9.20
2022-11-06T09:15:53.599Z,10.38
2022-11-06T09:18:20.858Z,9.70
2022-11-06T09:20:48.127Z,11.65
2022-11-06T09:23:16.026Z,10.68
2022-11-06T09:25:43.635Z,10.60
2022-11-06T09:28:11.448Z,10.50
2022-11-06T09:30:38.859Z,10.43
2022-11-06T09:33:10.543Z,11.40
2022-11-06T09:35:39.611Z,9.98
2022-11-06T09:38:12.084Z,12.27
2022-11-06T09:41:23.466Z,13.75
2022-11-06T09:44:37.316Z,11.38
2022-11-06T09:47:17.199Z,10.90
2022-11-06T09:49:56.051Z,10.38
2022-11-06T09:53:05.748Z,11.05
2022-11-06T09:55:43.689Z,9.38
2022-11-06T09:58:40.226Z,9.68
2022-11-06T10:01:42.069Z,10.32
2022-11-06T10:04:57.545Z,8.77
2022-11-06T10:07:40.777Z,8.63
2022-11-06T10:10:19.425Z,8.77
2022-11-06T10:14:00.481Z,7.53
2022-11-06T10:20:26.779Z,8.10
2022-11-06T10:23:34.692Z,7.28
2022-11-06T10:26:31.202Z,8.95
2022-11-06T10:29:54.610Z,7.18
2022-11-06T10:33:19.033Z,5.75
2022-11-06T10:36:24.560Z,6.47
2022-11-06T10:38:53.516Z,6.65
2022-11-06T10:41:31.091Z,6.07
2022-11-06T10:44:20.429Z,5.53
2022-11-06T10:47:04.210Z,6.20
2022-11-06T10:49:46.034Z,7.72
2022-11-06T10:52:52.223Z,6.90
2022-11-06T10:56:24.540Z,8.23
2022-11-06T10:58:54.008Z,7.25
2022-11-06T11:01:21.645Z,6.78
2022-11-06T11:03:50.651Z,7.45
2022-11-06T11:06:18.212Z,8.95
2022-11-06T11:08:51.317Z,6.40
2022-11-06T11:11:30.078Z,5.38
2022-11-06T11:13:57.095Z,7.00
2022-11-06T11:16:45.171Z,6.68
2022-11-06T11:19:41.973Z,6.07
2022-11-06T11:22:21.742Z,5.32
2022-11-06T11:25:16.080Z,5.03
2022-11-06T11:27:45.375Z,5.75
2022-11-06T11:30:29.565Z,8.07
2022-11-06T11:32:58.097Z,5.32
2022-11-06T11:35:31.424Z,5.07
2022-11-06T11:38:15.506Z,4.97
2022-11-06T11:40:43.462Z,4.82
2022-11-06T11:43:30.836Z,5.15
2022-11-06T11:46:08.862Z,4.07
2022-11-06T11:48:57.868Z,5.28
2022-11-06T11:51:44.775Z,4.75
2022-11-06T11:54:11.909Z,4.15
2022-11-06T11:57:06.549Z,5.03
2022-11-06T12:00:06.162Z,5.15
2022-11-06T12:03:04.034Z,4.32
2022-11-06T12:05:40.627Z,5.07
2022-11-06T12:08:24.447Z,4.78
2022-11-06T12:10:51.973Z,6.43
2022-11-06T12:13:25.548Z,4.30
2022-11-06T12:16:13.463Z,5.28
2022-11-06T12:18:56.015Z,6.97
2022-11-06T12:21:37.251Z,4.82
2022-11-06T12:25:00.143Z,4.95
2022-11-06T12:27:37.238Z,5.63
2022-11-06T12:30:14.349Z,5.72
2022-11-06T12:33:13.831Z,3.45
2022-11-06T12:36:04.226Z,4.28
2022-11-06T12:38:54.194Z,6.70
2022-11-06T12:41:36.389Z,4.22
2022-11-06T12:44:04.092Z,4.70
2022-11-06T12:47:19.639Z,5.82
2022-11-06T12:50:28.448Z,4.45
2022-11-06T12:53:53.102Z,3.90
2022-11-06T12:56:52.523Z,5.82
2022-11-06T13:00:00.825Z,4.53
2022-11-06T13:03:14.533Z,4.50
2022-11-06T13:06:24.382Z,5.30
2022-11-06T13:09:21.340Z,5.55
2022-11-06T13:12:25.656Z,4.07
2022-11-06T13:15:37.852Z,4.38
2022-11-06T13:18:39.676Z,3.97
2022-11-06T13:21:38.811Z,4.38
2022-11-06T13:24:25.835Z,3.90
2022-11-06T13:27:42.591Z,4.13
2022-11-06T13:30:22.389Z,2.83
2022-11-06T13:33:11.591Z,3.95
2022-11-06T13:35:45.102Z,3.05
2022-11-06T13:38:40.850Z,3.35
2022-11-06T13:41:25.675Z,2.75
2022-11-06T13:44:18.283Z,3.40
2022-11-06T13:47:17.286Z,3.17
2022-11-06T13:50:30.802Z,3.30
2022-11-06T13:53:31.914Z,4.20
2022-11-06T13:57:05.210Z,4.07
2022-11-06T14:00:16.619Z,4.60
2022-11-06T14:03:40.418Z,4.15
2022-11-06T14:06:26.297Z,4.85
2022-11-06T14:09:06.259Z,3.70
2022-11-06T14:11:40.125Z,4.97
2022-11-06T14:14:32.373Z,4.43
2022-11-06T14:17:24.382Z,8.30
2022-11-06T14:19:51.582Z,4.13
2022-11-06T14:22:38.984Z,4.07
2022-11-06T14:25:28.086Z,3.65
2022-11-06T14:27:55.114Z,4.00
2022-11-06T14:30:57.638Z,6.25
2022-11-06T14:33:49.238Z,3.53
2022-11-06T14:36:25.322Z,4.53
2022-11-06T14:38:54.229Z,3.47
2022-11-06T14:41:36.585Z,3.47
2022-11-06T14:44:35.375Z,3.95
2022-11-06T14:47:19.695Z,4.50
2022-11-06T14:49:54.859Z,3.42
2022-11-06T14:52:26.153Z,3.72
2022-11-06T14:55:06.677Z,5.57
2022-11-06T14:57:50.757Z,4.25
2022-11-06T15:01:08.772Z,3.92
2022-11-06T15:04:12.602Z,4.47
2022-11-06T15:06:47.246Z,3.70
2022-11-06T15:09:24.207Z,4.15
2022-11-06T15:12:08.002Z,4.25
2022-11-06T15:14:35.026Z,4.80
2022-11-06T15:17:17.332Z,4.28
2022-11-06T15:19:53.277Z,6.22
2022-11-06T15:22:47.568Z,4.70
2022-11-06T15:25:29.871Z,3.63
2022-11-06T15:28:17.576Z,3.60
2022-11-06T15:31:12.070Z,4.20
2022-11-06T15:34:17.737Z,4.97
2022-11-06T15:36:55.124Z,3.92
2022-11-06T15:39:36.504Z,4.05
2022-11-06T15:42:17.221Z,4.93
2022-11-06T15:47:29.252Z,5.45
2022-11-06T15:50:15.420Z,4.53
2022-11-06T15:52:45.083Z,3.75
2022-11-06T15:55:36.933Z,4.67
2022-11-06T15:58:19.253Z,4.28
2022-11-06T16:00:46.946Z,4.38
2022-11-06T16:03:25.002Z,5.05
2022-11-06T16:05:58.609Z,3.65
2022-11-06T16:08:30.279Z,4.85
2022-11-06T16:10:58.988Z,4.35
2022-11-06T16:13:28.058Z,4.20
2022-11-06T16:16:02.922Z,4.63
2022-11-06T16:18:44.509Z,6.38
2022-11-06T16:21:24.010Z,4.90
2022-11-06T16:24:14.823Z,5.80
2022-11-06T16:26:51.352Z,4.28
2022-11-06T16:29:29.697Z,5.53
2022-11-06T16:32:19.045Z,4.68
2022-11-06T16:34:48.635Z,4.65
2022-11-06T16:37:18.707Z,4.15
2022-11-06T16:39:54.240Z,4.20
2022-11-06T16:42:38.859Z,5.78
2022-11-06T16:45:20.042Z,5.07
2022-11-06T16:48:06.096Z,4.95
2022-11-06T16:50:54.284Z,7.28
2022-11-06T16:53:29.873Z,4.53
2022-11-06T16:56:05.796Z,5.65
2022-11-06T16:58:51.731Z,5.25
2022-11-06T17:01:20.942Z,5.47
2022-11-06T17:04:02.054Z,4.60
2022-11-06T17:06:36.822Z,6.13
2022-11-06T17:09:23.254Z,6.13
2022-11-06T17:12:00.865Z,5.65
2022-11-06T17:14:29.038Z,5.20
2022-11-06T17:17:02.437Z,5.20
2022-11-06T17:19:30.606Z,5.05
2022-11-06T17:21:58.287Z,5.00
2022-11-06T17:24:41.416Z,7.03
2022-11-06T17:27:08.999Z,5.75
2022-11-06T17:29:36.615Z,6.05
2022-11-06T17:32:04.495Z,7.03
2022-11-06T17:34:31.765Z,4.75
2022-11-06T17:36:59.134Z,5.82
2022-11-06T17:39:26.635Z,4.72
2022-11-06T17:41:54.579Z,5.25
2022-11-06T17:44:22.416Z,6.85
2022-11-06T17:46:49.869Z,5.65
2022-11-06T17:49:18.604Z,5.53
2022-11-06T17:51:52.665Z,5.10
2022-11-06T17:54:25.336Z,6.22
2022-11-06T17:56:55.574Z,5.10
2022-11-06T17:59:24.003Z,5.65
2022-11-06T18:01:53.007Z,5.35
2022-11-06T18:04:24.244Z,4.78
2022-11-06T18:06:53.601Z,6.05
2022-11-06T18:09:23.382Z,5.22
2022-11-06T18:11:54.091Z,5.15
2022-11-06T18:14:23.706Z,5.97
2022-11-06T18:16:51.434Z,7.50
2022-11-06T18:19:23.686Z,6.18
2022-11-06T18:21:52.933Z,6.50
2022-11-06T18:24:20.383Z,6.75
2022-11-06T18:26:47.659Z,5.57
2022-11-06T18:29:15.286Z,7.78
2022-11-06T18:31:42.820Z,6.45
2022-11-06T18:34:20.312Z,6.53
2022-11-06T18:36:50.723Z,10.98
2022-11-06T18:39:18.729Z,8.05
2022-11-06T18:41:46.144Z,7.80
2022-11-06T18:44:17.121Z,8.68
2022-11-06T18:46:46.466Z,9.93
2022-11-06T18:49:14.203Z,6.70
2022-11-06T18:51:41.623Z,9.07
2022-11-06T18:54:12.343Z,11.25
2022-11-06T18:56:39.646Z,7.80
2022-11-06T18:59:15.368Z,8.38
2022-11-06T19:01:42.948Z,7.15
2022-11-06T19:04:10.828Z,9.00
2022-11-06T19:06:40.072Z,8.48
2022-11-06T19:09:10.450Z,10.00
2022-11-06T19:11:37.953Z,8.32
2022-11-06T19:14:05.706Z,8.10
2022-11-06T19:16:33.098Z,8.77
2022-11-06T19:19:06.465Z,9.70
2022-11-06T19:21:35.348Z,7.57
2022-11-06T19:24:05.190Z,7.85
2022-11-06T19:26:36.257Z,9.05
2022-11-06T19:29:09.186Z,9.50
2022-11-06T19:31:38.213Z,8.40
2022-11-06T19:34:08.549Z,8.30
2022-11-06T19:36:36.352Z,7.60
2022-11-06T19:39:05.063Z,7.95
2022-11-06T19:41:32.666Z,7.90
2022-11-06T19:43:59.987Z,8.00
2022-11-06T19:46:33.962Z,8.57
2022-11-06T19:49:05.775Z,8.63
2022-11-06T19:51:34.451Z,7.55
2022-11-06T19:54:02.002Z,7.78
2022-11-06T19:56:29.352Z,8.55
2022-11-06T19:58:58.248Z,8.52
2022-11-06T20:01:25.599Z,7.47
2022-11-06T20:03:52.965Z,6.90
2022-11-06T20:06:20.467Z,6.43
2022-11-06T20:08:50.316Z,7.53
2022-11-06T20:11:18.314Z,7.28
2022-11-06T20:13:46.913Z,7.95
2022-11-06T20:16:20.358Z,9.27
2022-11-06T20:18:56.248Z,8.73
2022-11-06T20:21:30.413Z,6.25
2022-11-06T20:23:58.158Z,7.15
2022-11-06T20:26:25.711Z,6.60
2022-11-06T20:28:53.167Z,6.78
2022-11-06T20:31:22.383Z,7.22
2022-11-06T20:33:50.805Z,7.22
2022-11-06T20:36:34.924Z,7.57
2022-11-06T20:39:05.211Z,7.55
2022-11-06T20:41:32.824Z,6.13
2022-11-06T20:44:00.191Z,7.10
2022-11-06T20:46:27.613Z,6.72
2022-11-06T20:48:55.055Z,7.80
2022-11-06T20:51:28.398Z,5.75
2022-11-06T20:53:56.535Z,6.75
2022-11-06T20:56:25.421Z,7.60
2022-11-06T20:58:57.129Z,5.85
2022-11-06T21:01:29.377Z,7.18
2022-11-06T21:03:58.292Z,8.88
2022-11-06T21:06:27.622Z,6.43
2022-11-06T21:08:55.714Z,7.53
2022-11-06T21:11:28.233Z,7.07
2022-11-06T21:13:56.369Z,6.65
2022-11-06T21:16:34.043Z,6.30
2022-11-06T21:19:04.033Z,6.25
2022-11-06T21:21:37.409Z,8.93
2022-11-06T21:24:06.444Z,6.88
2022-11-06T21:26:38.067Z,8.93
2022-11-06T21:29:10.769Z,7.18
2022-11-06T21:31:47.540Z,6.68
2022-11-06T21:34:18.594Z,8.98
2022-11-06T21:36:46.711Z,13.73
2022-11-06T21:39:19.886Z,8.38
2022-11-06T21:41:47.912Z,7.25
2022-11-06T21:44:18.429Z,7.60
2022-11-06T21:46:46.446Z,6.60
2022-11-06T21:49:14.712Z,7.82
2022-11-06T21:51:42.030Z,8.15
2022-11-06T21:54:31.172Z,6.72
2022-11-06T21:56:58.868Z,6.90
2022-11-06T21:59:29.997Z,5.63
2022-11-06T22:01:59.438Z,6.68
2022-11-06T22:04:26.765Z,5.10
2022-11-06T22:06:54.045Z,6.57
2022-11-06T22:09:25.186Z,5.20
2022-11-06T22:11:53.555Z,6.50
2022-11-06T22:14:21.147Z,6.15
2022-11-06T22:16:48.514Z,5.40
2022-11-06T22:19:17.782Z,6.75
2022-11-06T22:21:45.233Z,5.95
2022-11-06T22:24:14.429Z,8.02
2022-11-06T22:26:41.901Z,7.20
2022-11-06T22:29:14.100Z,6.55
2022-11-06T22:31:41.802Z,8.73
2022-11-06T22:34:12.545Z,7.10
2022-11-06T22:36:41.954Z,7.43
2022-11-06T22:39:12.125Z,9.63
2022-11-06T22:41:40.620Z,8.93
2022-11-06T22:44:08.319Z,7.32
2022-11-06T22:46:36.079Z,9.88
2022-11-06T22:49:04.672Z,6.32
2022-11-06T22:51:33.782Z,8.77
2022-11-06T22:54:02.686Z,11.07
2022-11-06T22:56:32.151Z,8.88
2022-11-06T22:59:08.459Z,8.43
2022-11-06T23:01:41.770Z,12.27
2022-11-06T23:04:15.003Z,9.10
2022-11-06T23:06:45.522Z,10.73
2022-11-06T23:09:13.859Z,14.45
2022-11-06T23:11:41.206Z,12.10
2022-11-06T23:14:09.672Z,12.80
2022-11-06T23:16:56.796Z,12.27
2022-11-06T23:19:25.167Z,12.18
2022-11-06T23:22:12.419Z,11.45
2022-11-06T23:24:40.458Z,10.20
2022-11-06T23:27:12.623Z,11.30
2022-11-06T23:29:40.383Z,9.75
2022-11-06T23:32:08.287Z,8.63
2022-11-06T23:34:35.804Z,12.98
2022-11-06T23:37:03.096Z,10.38
2022-11-06T23:39:34.943Z,14.52
2022-11-06T23:42:02.213Z,11.13
2022-11-06T23:44:49.021Z,9.95
2022-11-06T23:47:16.292Z,11.88
2022-11-06T23:49:43.566Z,8.98
2022-11-06T23:52:10.836Z,10.15
2022-11-06T23:54:38.153Z,12.27
2022-11-06T23:57:05.448Z,10.52
2022-11-06T23:59:34.645Z,9.20
